Terminal Aerodrome Forecast
Issued by NWS

Current Version | Previous Version | Text Only | Print | Product List | Glossary On
Versions: 1 2 3 4 5 6 7 8 9 10 11 12 13 14 15
000
FTUS46 KSTO 250527
TAFSAC
TAF
KSAC 250527Z 2506/2606 21011KT P6SM BKN080
     FM251100 19007KT P6SM VCSH OVC050
     FM251500 18007KT P6SM -SHRA OVC025
     FM252100 18008KT P6SM VCSH SCT025 OVC035=

USA.gov is the U.S. government's official web portal to all federal, state and local government web resources and services.